Change the Weather History Date:

Sunday, November 18, 2012

  Actual Average Record
Temperature  
Mean Temperature 48 °F -  
Max Temperature 55 °F 35 °F 60 °F (2001)
Min Temperature 41 °F 23 °F 8 °F (2014)
Degree Days  
Heating Degree Days 17    
Moisture  
Dew Point 28 °F    
Average Humidity 48    
Maximum Humidity 61    
Minimum Humidity 36    
Precipitation  
Precipitation 0.00 in - - ()
Sea Level Pressure  
Sea Level Pressure 30.16 in    
Wind  
Wind Speed 10 mph (South)    
Max Wind Speed 18 mph    
Max Gust Speed 26 mph    
Visibility 10 miles    
Events      
Averages and records for this station are not official NWS values.
T = Trace of Precipitation, MM = Missing Value Source: NWS Daily Summary

Daily Weather History Graph

Daily Weather History Graph

Search for Another Location

Airport or City:

Trip Planner

Search our weather history database for the weather conditions in past years. The results will help you decide how hot, cold, wet, or windy it might be!

Date:

Astronomy

Nov. 18, 2012 Rise Set
Actual Time 7:07 AM CST 4:23 PM CST
Civil Twilight 6:34 AM CST 4:56 PM CST
Nautical Twilight 5:57 AM CST 5:33 PM CST
Astronomical Twilight 5:21 AM CST 6:09 PM CST
Moon 11:30 AM CST (11/18) 9:48 PM CST (11/18)
Length of Visible Light 10h 22m
Length of Day
9h 16m
Waxing Crescent, 30% of the Moon is Illuminated
Nov 18
Waxing Crescent
Nov 20
First Quarter
Nov 28
Full
Dec 6
Last Quarter
Dec 13
New

Hourly Weather History & Observations

Time (CST) Temp. Windchill Dew Point Humidity Pressure Visibility Wind Dir Wind Speed Gust Speed Precip Events Conditions
12:15 AM 44.6 °F 39.7 °F 30.2 °F 57% 30.27 in 10.0 mi SSW 9.2 mph - N/A   Overcast
12:35 AM 44.6 °F 40.7 °F 30.2 °F 57% 30.27 in 10.0 mi SSW 6.9 mph 18.4 mph N/A   Overcast
12:55 AM 44.6 °F 40.7 °F 30.2 °F 57% 30.27 in 10.0 mi South 6.9 mph - N/A   Overcast
1:15 AM 44.6 °F 40.7 °F 30.2 °F 57% 30.27 in 10.0 mi South 6.9 mph - N/A   Overcast
1:35 AM 42.8 °F 38.6 °F 30.2 °F 61% 30.27 in 10.0 mi South 6.9 mph - N/A   Overcast
1:55 AM 42.8 °F 39.3 °F 30.2 °F 61% 30.26 in 10.0 mi South 5.8 mph - N/A   Overcast
2:15 AM 42.8 °F 39.3 °F 30.2 °F 61% 30.26 in 10.0 mi SSE 5.8 mph - N/A   Partly Cloudy
2:35 AM 42.8 °F 37.0 °F 28.4 °F 57% 30.26 in 10.0 mi South 10.4 mph - N/A   Clear
2:55 AM 42.8 °F 36.2 °F 28.4 °F 57% 30.25 in 10.0 mi SSE 12.7 mph 18.4 mph N/A   Clear
3:15 AM 42.8 °F 36.6 °F 28.4 °F 57% 30.25 in 10.0 mi SSE 11.5 mph 17.3 mph N/A   Clear
3:35 AM 42.8 °F 36.6 °F 28.4 °F 57% 30.24 in 10.0 mi SSE 11.5 mph 19.6 mph N/A   Clear
3:55 AM 41.0 °F 35.2 °F 28.4 °F 61% 30.24 in 10.0 mi SSE 9.2 mph 16.1 mph N/A   Clear
4:15 AM 41.0 °F 36.4 °F 28.4 °F 61% 30.24 in 10.0 mi SSE 6.9 mph 18.4 mph N/A   Clear
4:35 AM 41.0 °F 37.1 °F 26.6 °F 57% 30.24 in 10.0 mi South 5.8 mph - N/A   Clear
4:55 AM 42.8 °F 39.3 °F 26.6 °F 53% 30.24 in 10.0 mi South 5.8 mph - N/A   Clear
5:15 AM 41.0 °F 38.0 °F 26.6 °F 57% 30.24 in 10.0 mi South 4.6 mph - N/A   Clear
5:35 AM 41.0 °F - 26.6 °F 57% 30.23 in 10.0 mi Calm Calm - N/A   Clear
5:55 AM 41.0 °F 35.8 °F 26.6 °F 57% 30.23 in 10.0 mi South 8.1 mph - N/A   Clear
6:15 AM 41.0 °F 36.4 °F 26.6 °F 57% 30.21 in 10.0 mi SSE 6.9 mph 18.4 mph N/A   Clear
6:35 AM 41.0 °F 33.9 °F 26.6 °F 57% 30.21 in 10.0 mi South 12.7 mph 21.9 mph N/A   Clear
6:55 AM 42.8 °F 35.4 °F 26.6 °F 53% 30.20 in 10.0 mi South 15.0 mph 25.3 mph N/A   Clear
7:15 AM 42.8 °F 35.1 °F 26.6 °F 53% 30.20 in 10.0 mi South 16.1 mph 20.7 mph N/A   Clear
7:35 AM 42.8 °F 35.8 °F 26.6 °F 53% 30.20 in 10.0 mi South 13.8 mph 25.3 mph N/A   Mostly Cloudy
7:55 AM 42.8 °F 35.4 °F 26.6 °F 53% 30.20 in 10.0 mi South 15.0 mph 23.0 mph N/A   Overcast
8:15 AM 42.8 °F 35.4 °F 26.6 °F 53% 30.19 in 10.0 mi South 15.0 mph 25.3 mph N/A   Overcast
8:35 AM 44.6 °F 38.1 °F 26.6 °F 49% 30.20 in 10.0 mi South 13.8 mph 25.3 mph N/A   Overcast
8:55 AM 44.6 °F 37.8 °F 26.6 °F 49% 30.19 in 10.0 mi South 15.0 mph 25.3 mph N/A   Overcast
9:15 AM 46.4 °F 40.7 °F 26.6 °F 46% 30.19 in 10.0 mi South 12.7 mph 20.7 mph N/A   Overcast
9:35 AM 46.4 °F 40.7 °F 28.4 °F 50% 30.19 in 10.0 mi South 12.7 mph 23.0 mph N/A   Overcast
9:55 AM 48.2 °F - 28.4 °F 46% 30.19 in 10.0 mi South 11.5 mph - N/A   Mostly Cloudy
10:15 AM 48.2 °F - 26.6 °F 43% 30.19 in 10.0 mi South 11.5 mph 19.6 mph N/A   Overcast
10:35 AM 51.8 °F - 28.4 °F 41% 30.18 in 10.0 mi South 13.8 mph 21.9 mph N/A   Overcast
10:55 AM 51.8 °F - 28.4 °F 41% 30.18 in 10.0 mi South 10.4 mph 21.9 mph N/A   Overcast
11:15 AM 51.8 °F - 28.4 °F 41% 30.17 in 10.0 mi South 8.1 mph 21.9 mph N/A   Mostly Cloudy
11:35 AM 53.6 °F - 28.4 °F 38% 30.16 in 10.0 mi South 15.0 mph 26.5 mph N/A   Mostly Cloudy
11:55 AM 53.6 °F - 28.4 °F 38% 30.15 in 10.0 mi South 16.1 mph 24.2 mph N/A   Mostly Cloudy
12:15 PM 53.6 °F - 30.2 °F 41% 30.14 in 10.0 mi South 12.7 mph 21.9 mph N/A   Overcast
12:35 PM 53.6 °F - 28.4 °F 38% 30.13 in 10.0 mi South 15.0 mph 23.0 mph N/A   Overcast
12:55 PM 55.4 °F - 28.4 °F 36% 30.12 in 10.0 mi South 13.8 mph 21.9 mph N/A   Overcast
1:15 PM 55.4 °F - 28.4 °F 36% 30.11 in 10.0 mi SSE 15.0 mph 25.3 mph N/A   Overcast
1:35 PM 53.6 °F - 28.4 °F 38% 30.11 in 10.0 mi South 15.0 mph 21.9 mph N/A   Overcast
1:55 PM 53.6 °F - 28.4 °F 38% 30.10 in 10.0 mi South 18.4 mph 25.3 mph N/A   Overcast
2:15 PM 53.6 °F - 28.4 °F 38% 30.10 in 10.0 mi South 11.5 mph 19.6 mph N/A   Overcast
2:35 PM 53.6 °F - 28.4 °F 38% 30.10 in 10.0 mi South 10.4 mph 19.6 mph N/A   Overcast
2:55 PM 53.6 °F - 30.2 °F 41% 30.10 in 10.0 mi South 9.2 mph 19.6 mph N/A   Overcast
3:15 PM 53.6 °F - 30.2 °F 41% 30.10 in 10.0 mi SSE 10.4 mph 18.4 mph N/A   Mostly Cloudy
3:35 PM 53.6 °F - 30.2 °F 41% 30.10 in 10.0 mi SSE 11.5 mph 20.7 mph N/A   Mostly Cloudy
3:55 PM 53.6 °F - 28.4 °F 38% 30.10 in 10.0 mi South 11.5 mph 23.0 mph N/A   Mostly Cloudy
4:15 PM 53.6 °F - 28.4 °F 38% 30.10 in 10.0 mi SSE 12.7 mph 21.9 mph N/A   Scattered Clouds
4:35 PM 53.6 °F - 28.4 °F 38% 30.10 in 10.0 mi South 15.0 mph 20.7 mph N/A   Mostly Cloudy
4:55 PM 53.6 °F - 28.4 °F 38% 30.10 in 10.0 mi South 15.0 mph - N/A   Scattered Clouds
5:15 PM 53.6 °F - 28.4 °F 38% 30.10 in 10.0 mi South 11.5 mph 21.9 mph N/A   Scattered Clouds
5:35 PM 51.8 °F - 28.4 °F 41% 30.10 in 10.0 mi SSE 12.7 mph 20.7 mph N/A   Partly Cloudy
5:55 PM 51.8 °F - 28.4 °F 41% 30.10 in 10.0 mi SSE 10.4 mph 19.6 mph N/A   Clear
6:15 PM 51.8 °F - 28.4 °F 41% 30.10 in 10.0 mi South 12.7 mph 17.3 mph N/A   Clear
6:35 PM 51.8 °F - 28.4 °F 41% 30.10 in 10.0 mi SSE 13.8 mph 25.3 mph N/A   Clear
6:55 PM 51.8 °F - 28.4 °F 41% 30.10 in 10.0 mi SSE 13.8 mph 24.2 mph N/A   Clear
7:15 PM 50.0 °F - 28.4 °F 43% 30.11 in 10.0 mi South 10.4 mph 19.6 mph N/A   Clear
7:35 PM 50.0 °F - 28.4 °F 43% 30.11 in 10.0 mi South 12.7 mph 18.4 mph N/A   Clear
7:55 PM 50.0 °F - 28.4 °F 43% 30.11 in 10.0 mi South 9.2 mph 19.6 mph N/A   Clear
8:15 PM 48.2 °F - 28.4 °F 46% 30.11 in 10.0 mi South 9.2 mph 19.6 mph N/A   Clear
8:35 PM 48.2 °F - 28.4 °F 46% 30.11 in 10.0 mi South 11.5 mph 18.4 mph N/A   Clear
8:55 PM 48.2 °F - 28.4 °F 46% 30.11 in 10.0 mi South 12.7 mph 21.9 mph N/A   Clear
9:15 PM 48.2 °F - 28.4 °F 46% 30.11 in 10.0 mi South 12.7 mph 19.6 mph N/A   Clear
9:35 PM 48.2 °F - 28.4 °F 46% 30.11 in 10.0 mi South 10.4 mph 18.4 mph N/A   Clear
9:55 PM 46.4 °F 40.7 °F 28.4 °F 50% 30.11 in 10.0 mi South 12.7 mph 19.6 mph N/A   Clear
10:15 PM 46.4 °F 41.9 °F 28.4 °F 50% 30.11 in 10.0 mi South 9.2 mph 17.3 mph N/A   Clear
10:35 PM 46.4 °F 40.7 °F 28.4 °F 50% 30.11 in 10.0 mi South 12.7 mph 20.7 mph N/A   Clear
10:55 PM 46.4 °F 41.5 °F 28.4 °F 50% 30.11 in 10.0 mi South 10.4 mph 17.3 mph N/A   Clear
11:15 PM 46.4 °F 42.9 °F 28.4 °F 50% 30.11 in 10.0 mi South 6.9 mph - N/A   Clear
11:35 PM 46.4 °F 42.4 °F 28.4 °F 50% 30.12 in 10.0 mi South 8.1 mph - N/A   Clear
11:55 PM 46.4 °F 42.9 °F 28.4 °F 50% 30.12 in 10.0 mi SSW 6.9 mph - N/A   Partly Cloudy